Time;durP1;ratioP1;P1;durP2;ratioP2;P2;SDS_P1;SDS_P2;PMS_P1;PMS_P2;Temp;Humidity;BMP_temperature;BMP_pressure;BME280_temperature;BME280_humidity;BME280_pressure;Samples;Min_cycle;Max_cycle;Signal;HPM_P1;HPM_P2
2022/11/25 00:00:57;;;;;;;;;;;;;;;;;;5010504;28;20328;-73
2022/11/25 00:03:26;;;;;;;;;;;;;;;;;;5016936;28;19921;-74
2022/11/25 00:05:52;;;;;;;;;;;;;;;;;;4992948;28;19928;-75
2022/11/25 00:08:18;;;;;;;;;;;;;;;;;;5008835;28;19921;-74
2022/11/25 00:10:44;;;;;;;;;;;;;;;;;;5011351;28;20268;-75
2022/11/25 00:13:10;;;;;;;;;;;;;;;;;;5011846;28;20007;-74
2022/11/25 00:15:35;;;;;;;;;;;;;;;;;;5008063;28;19932;-76
2022/11/25 00:18:01;;;;;;;;;;;;;;;;;;4992984;28;19945;-76
2022/11/25 00:20:27;;;;;;;;;;;;;;;;;;5011234;28;19921;-74
2022/11/25 00:22:53;;;;;;;;;;;;;;;;;;5011399;28;20008;-74
2022/11/25 00:25:19;;;;;;;;;;;;;;;;;;5010132;28;20454;-75
2022/11/25 00:27:45;;;;;;;;;;;;;;;;;;5008817;28;20433;-74
2022/11/25 00:30:11;;;;;;;;;;;;;;;;;;4992596;28;19928;-75
2022/11/25 00:32:37;;;;;;;;;;;;;;;;;;5014118;28;19967;-74
2022/11/25 00:35:03;;;;;;;;;;;;;;;;;;4994048;28;19921;-76
2022/11/25 00:37:29;;;;;;;;;;;;;;;;;;5010896;28;19944;-74
2022/11/25 00:39:55;;;;;;;;;;;;;;;;;;4991016;28;19969;-76
2022/11/25 00:45:06;;;;;;;;;;;;;;;;;;5010038;28;19937;-74
2022/11/25 00:47:32;;;;;;;;;;;;;;;;;;5009178;28;20313;-73
2022/11/25 00:49:58;;;;;;;;;;;;;;;;;;5004032;28;20402;-74
2022/11/25 00:52:24;;;;;;;;;;;;;;;;;;5004655;28;19927;-74
2022/11/25 00:54:50;;;;;;;;;;;;;;;;;;4999368;28;20012;-74
2022/11/25 00:57:16;;;;;;;;;;;;;;;;;;5012282;28;19922;-75
2022/11/25 00:59:41;;;;;;;;;;;;;;;;;;5016172;28;19925;-74
2022/11/25 01:02:07;;;;;;;;;;;;;;;;;;5015608;28;20104;-74
2022/11/25 01:04:33;;;;;;;;;;;;;;;;;;4996993;28;20004;-74
2022/11/25 01:07:01;;;;;;;;;;;;;;;;;;5014111;28;20345;-75
2022/11/25 01:09:27;;;;;;;;;;;;;;;;;;5012489;28;19968;-74
2022/11/25 01:11:52;;;;;;;;;;;;;;;;;;4994232;28;19930;-74
2022/11/25 01:14:18;;;;;;;;;;;;;;;;;;5006677;28;19921;-74
2022/11/25 01:16:44;;;;;;;;;;;;;;;;;;4995973;28;20481;-76
2022/11/25 01:19:10;;;;;;;;;;;;;;;;;;5020474;28;19921;-74
2022/11/25 01:21:36;;;;;;;;;;;;;;;;;;5012482;28;19921;-73
2022/11/25 01:24:02;;;;;;;;;;;;;;;;;;5013439;28;20000;-74
2022/11/25 01:26:28;;;;;;;;;;;;;;;;;;5014570;28;20016;-73
2022/11/25 01:28:54;;;;;;;;;;;;;;;;;;5016568;28;20320;-74
2022/11/25 01:31:20;;;;;;;;;;;;;;;;;;5014304;28;19925;-74
2022/11/25 01:33:46;;;;;;;;;;;;;;;;;;5014616;28;20389;-74
2022/11/25 01:36:12;;;;;;;;;;;;;;;;;;5015564;28;19921;-74
2022/11/25 01:38:38;;;;;;;;;;;;;;;;;;5011405;28;19928;-75
2022/11/25 01:41:04;;;;;;;;;;;;;;;;;;5014642;28;20255;-74
2022/11/25 01:43:30;;;;;;;;;;;;;;;;;;5013869;28;19944;-73
2022/11/25 01:45:59;;;;;;;;;;;;;;;;;;5012433;28;19983;-75
2022/11/25 01:48:25;;;;;;;;;;;;;;;;;;5009709;28;19952;-74
2022/11/25 01:50:51;;;;;;;;;;;;;;;;;;4996708;28;19921;-74
2022/11/25 01:53:20;;;;;;;;;;;;;;;;;;5012447;28;19929;-75
2022/11/25 01:55:45;;;;;;;;;;;;;;;;;;5011293;28;19932;-73
2022/11/25 01:58:11;;;;;;;;;;;;;;;;;;5007430;28;19922;-74
2022/11/25 02:00:37;;;;;;;;;;;;;;;;;;5011304;28;19961;-73
2022/11/25 02:03:03;;;;;;;;;;;;;;;;;;5011136;28;19929;-74
2022/11/25 02:05:29;;;;;;;;;;;;;;;;;;5014259;28;19925;-75
2022/11/25 02:07:55;;;;;;;;;;;;;;;;;;5009289;28;19928;-74
2022/11/25 02:10:21;;;;;;;;;;;;;;;;;;5010454;28;20322;-76
2022/11/25 02:12:47;;;;;;;;;;;;;;;;;;4993056;28;20241;-74
2022/11/25 02:15:13;;;;;;;;;;;;;;;;;;5009714;28;19932;-74
2022/11/25 02:17:39;;;;;;;;;;;;;;;;;;5013071;28;19921;-73
2022/11/25 02:20:05;;;;;;;;;;;;;;;;;;5012208;28;20278;-74
2022/11/25 02:22:31;;;;;;;;;;;;;;;;;;5009576;28;19921;-73
2022/11/25 02:24:57;;;;;;;;;;;;;;;;;;5012593;28;20421;-73
2022/11/25 02:27:29;;;;;;;;;;;;;;;;;;5008583;28;19961;-73
2022/11/25 02:29:55;;;;;;;;;;;;;;;;;;5009099;28;19929;-74
2022/11/25 02:32:21;;;;;;;;;;;;;;;;;;5007349;28;19941;-74
2022/11/25 02:34:47;;;;;;;;;;;;;;;;;;5010630;28;19999;-74
2022/11/25 02:37:13;;;;;;;;;;;;;;;;;;5014519;28;19973;-74
2022/11/25 02:39:39;;;;;;;;;;;;;;;;;;5010902;28;19983;-73
2022/11/25 02:42:05;;;;;;;;;;;;;;;;;;5014412;28;20135;-74
2022/11/25 02:44:31;;;;;;;;;;;;;;;;;;4995657;28;19921;-73
2022/11/25 02:46:57;;;;;;;;;;;;;;;;;;4993535;28;19972;-73
2022/11/25 02:49:23;;;;;;;;;;;;;;;;;;5026715;28;19921;-74
2022/11/25 02:51:49;;;;;;;;;;;;;;;;;;5013386;28;19921;-75
2022/11/25 02:54:18;;;;;;;;;;;;;;;;;;4993448;28;19922;-74
2022/11/25 02:56:44;;;;;;;;;;;;;;;;;;4990904;28;19928;-74
2022/11/25 02:59:10;;;;;;;;;;;;;;;;;;5013020;28;19952;-75
2022/11/25 03:01:37;;;;;;;;;;;;;;;;;;5012940;28;20390;-74
2022/11/25 03:04:03;;;;;;;;;;;;;;;;;;5010459;28;19930;-73
2022/11/25 03:06:29;;;;;;;;;;;;;;;;;;4996978;28;19956;-75
2022/11/25 03:08:55;;;;;;;;;;;;;;;;;;5013402;28;19921;-75
2022/11/25 03:12:17;;;;;;;;;;;;;;;;;;5012455;28;19967;-75
2022/11/25 03:14:06;;;;;;;;;;;;;;;;;;5010605;28;20273;-75
2022/11/25 03:16:35;;;;;;;;;;;;;;;;;;5012690;28;19922;-76
2022/11/25 03:19:01;;;;;;;;;;;;;;;;;;5005509;28;20286;-75
2022/11/25 03:21:27;;;;;;;;;;;;;;;;;;5003301;28;19936;-75
2022/11/25 03:23:53;;;;;;;;;;;;;;;;;;5013248;28;19921;-73
2022/11/25 03:26:19;;;;;;;;;;;;;;;;;;4983058;28;20558;-75
2022/11/25 03:28:45;;;;;;;;;;;;;;;;;;5004885;28;20301;-74
2022/11/25 03:31:11;;;;;;;;;;;;;;;;;;5012975;28;19936;-76
2022/11/25 03:33:37;;;;;;;;;;;;;;;;;;5010842;28;19957;-77
2022/11/25 03:36:03;;;;;;;;;;;;;;;;;;5010763;28;19928;-74
2022/11/25 03:38:29;;;;;;;;;;;;;;;;;;5009925;28;19928;-74
2022/11/25 03:40:58;;;;;;;;;;;;;;;;;;5003631;28;19922;-76
2022/11/25 03:43:23;;;;;;;;;;;;;;;;;;5006285;28;19921;-74
2022/11/25 03:45:49;;;;;;;;;;;;;;;;;;4989419;28;20326;-76
2022/11/25 03:48:15;;;;;;;;;;;;;;;;;;4991606;28;20005;-77
2022/11/25 03:50:41;;;;;;;;;;;;;;;;;;4993219;28;20004;-76
2022/11/25 03:53:07;;;;;;;;;;;;;;;;;;4996891;28;19928;-75
2022/11/25 03:55:33;;;;;;;;;;;;;;;;;;4994272;28;19929;-75
2022/11/25 03:57:59;;;;;;;;;;;;;;;;;;5001222;28;19921;-76
2022/11/25 04:00:25;;;;;;;;;;;;;;;;;;5012574;28;19936;-75
2022/11/25 04:02:51;;;;;;;;;;;;;;;;;;5013174;28;19921;-76
2022/11/25 04:05:17;;;;;;;;;;;;;;;;;;5011284;28;19921;-75
2022/11/25 04:07:43;;;;;;;;;;;;;;;;;;5013118;28;20013;-75
2022/11/25 04:10:09;;;;;;;;;;;;;;;;;;5007530;28;19929;-75
2022/11/25 04:12:47;;;;;;;;;;;;;;;;;;4994993;28;19928;-75
2022/11/25 04:15:13;;;;;;;;;;;;;;;;;;5007461;28;20297;-76
2022/11/25 04:17:39;;;;;;;;;;;;;;;;;;5012043;28;20298;-75
2022/11/25 04:20:05;;;;;;;;;;;;;;;;;;5010593;28;20367;-76
2022/11/25 04:22:31;;;;;;;;;;;;;;;;;;5010825;28;20366;-76
2022/11/25 04:24:57;;;;;;;;;;;;;;;;;;4994466;28;20012;-76
2022/11/25 04:27:23;;;;;;;;;;;;;;;;;;5011671;28;20007;-74
2022/11/25 04:29:49;;;;;;;;;;;;;;;;;;5010505;28;19927;-74
2022/11/25 04:32:14;;;;;;;;;;;;;;;;;;5013340;28;20341;-76
2022/11/25 04:34:40;;;;;;;;;;;;;;;;;;5005195;28;20297;-75
2022/11/25 04:37:06;;;;;;;;;;;;;;;;;;5010730;28;20426;-75
2022/11/25 04:39:32;;;;;;;;;;;;;;;;;;5011764;28;19921;-75
2022/11/25 04:44:43;;;;;;;;;;;;;;;;;;5010034;28;20029;-76
2022/11/25 04:47:09;;;;;;;;;;;;;;;;;;4996221;28;19921;-75
2022/11/25 04:49:35;;;;;;;;;;;;;;;;;;4983495;28;19983;-74
2022/11/25 04:52:01;;;;;;;;;;;;;;;;;;4995293;28;19928;-75
2022/11/25 04:54:27;;;;;;;;;;;;;;;;;;5004888;28;19968;-75
2022/11/25 04:56:53;;;;;;;;;;;;;;;;;;5012746;28;19972;-74
2022/11/25 05:02:03;;;;;;;;;;;;;;;;;;5010588;28;19967;-75
2022/11/25 05:04:29;;;;;;;;;;;;;;;;;;4996287;28;20259;-76
2022/11/25 05:06:55;;;;;;;;;;;;;;;;;;4992691;28;19922;-74
2022/11/25 05:09:21;;;;;;;;;;;;;;;;;;5001672;28;19931;-75
2022/11/25 05:11:48;;;;;;;;;;;;;;;;;;5008864;28;20432;-73
2022/11/25 05:14:14;;;;;;;;;;;;;;;;;;4992003;28;19929;-76
2022/11/25 05:16:40;;;;;;;;;;;;;;;;;;4993949;28;19926;-73
2022/11/25 05:19:06;;;;;;;;;;;;;;;;;;5002803;28;20329;-74
2022/11/25 05:21:31;;;;;;;;;;;;;;;;;;4995092;28;20440;-75
2022/11/25 05:23:57;;;;;;;;;;;;;;;;;;4999288;28;19925;-75
2022/11/25 05:26:23;;;;;;;;;;;;;;;;;;5011424;28;19921;-75
2022/11/25 05:28:49;;;;;;;;;;;;;;;;;;5011448;28;19939;-75
2022/11/25 05:31:15;;;;;;;;;;;;;;;;;;5005847;28;20023;-75
2022/11/25 05:33:41;;;;;;;;;;;;;;;;;;5009040;28;20322;-75
2022/11/25 05:36:07;;;;;;;;;;;;;;;;;;5010933;28;19932;-74
2022/11/25 05:38:33;;;;;;;;;;;;;;;;;;5014938;28;19968;-76
2022/11/25 05:40:59;;;;;;;;;;;;;;;;;;5013684;28;19935;-75
2022/11/25 05:43:25;;;;;;;;;;;;;;;;;;5011546;28;20413;-74
2022/11/25 05:45:51;;;;;;;;;;;;;;;;;;5012254;28;19921;-75
2022/11/25 05:48:17;;;;;;;;;;;;;;;;;;4991714;28;19995;-76
2022/11/25 05:50:43;;;;;;;;;;;;;;;;;;5003579;28;19945;-74
2022/11/25 05:53:13;;;;;;;;;;;;;;;;;;5011988;28;20271;-75
2022/11/25 05:55:38;;;;;;;;;;;;;;;;;;5007943;28;19922;-74
2022/11/25 05:58:05;;;;;;;;;;;;;;;;;;5015507;28;20420;-76
2022/11/25 06:00:31;;;;;;;;;;;;;;;;;;5010744;28;19925;-74
2022/11/25 06:02:57;;;;;;;;;;;;;;;;;;5009988;28;20007;-74
2022/11/25 06:05:22;;;;;;;;;;;;;;;;;;5019453;28;20013;-75
2022/11/25 06:07:48;;;;;;;;;;;;;;;;;;5019531;28;19944;-76
2022/11/25 06:10:14;;;;;;;;;;;;;;;;;;5011181;28;19928;-74
2022/11/25 06:12:40;;;;;;;;;;;;;;;;;;4987693;28;19933;-75
2022/11/25 06:15:06;;;;;;;;;;;;;;;;;;5009168;28;19925;-74
2022/11/25 06:17:32;;;;;;;;;;;;;;;;;;4987280;28;20322;-75
2022/11/25 06:19:58;;;;;;;;;;;;;;;;;;5007526;28;20357;-74
2022/11/25 06:22:24;;;;;;;;;;;;;;;;;;4995708;28;20286;-76
2022/11/25 06:24:50;;;;;;;;;;;;;;;;;;5010100;28;20297;-74
2022/11/25 06:27:16;;;;;;;;;;;;;;;;;;5009553;28;20363;-74
2022/11/25 06:29:42;;;;;;;;;;;;;;;;;;5013025;28;19921;-74
2022/11/25 06:32:08;;;;;;;;;;;;;;;;;;5013249;28;19928;-73
2022/11/25 06:34:35;;;;;;;;;;;;;;;;;;4996883;28;20578;-75
2022/11/25 06:37:01;;;;;;;;;;;;;;;;;;5010941;28;20325;-75
2022/11/25 06:39:27;;;;;;;;;;;;;;;;;;5005957;28;19929;-74
2022/11/25 06:41:53;;;;;;;;;;;;;;;;;;4995057;28;19921;-74
2022/11/25 06:44:19;;;;;;;;;;;;;;;;;;5014508;28;19925;-73
2022/11/25 06:46:45;;;;;;;;;;;;;;;;;;5014255;28;19921;-73
2022/11/25 06:49:11;;;;;;;;;;;;;;;;;;5009839;28;19925;-73
2022/11/25 06:51:36;;;;;;;;;;;;;;;;;;5016187;28;20281;-74
2022/11/25 06:54:02;;;;;;;;;;;;;;;;;;5021864;28;20369;-73
2022/11/25 06:56:28;;;;;;;;;;;;;;;;;;5014062;28;20271;-73
2022/11/25 06:58:54;;;;;;;;;;;;;;;;;;5012431;28;20341;-73
2022/11/25 07:01:20;;;;;;;;;;;;;;;;;;5013839;28;21052;-73
2022/11/25 07:03:46;;;;;;;;;;;;;;;;;;4997042;28;19994;-73
2022/11/25 07:06:12;;;;;;;;;;;;;;;;;;4994046;28;19928;-73
2022/11/25 07:08:38;;;;;;;;;;;;;;;;;;5011058;28;19921;-73
2022/11/25 07:11:04;;;;;;;;;;;;;;;;;;4992536;28;20501;-73
2022/11/25 07:13:30;;;;;;;;;;;;;;;;;;5015274;28;19928;-74
2022/11/25 07:15:56;;;;;;;;;;;;;;;;;;4998134;28;19921;-74
2022/11/25 07:18:22;;;;;;;;;;;;;;;;;;4997815;28;19928;-73
2022/11/25 07:20:48;;;;;;;;;;;;;;;;;;5013021;28;19917;-73
2022/11/25 07:23:14;;;;;;;;;;;;;;;;;;5016007;28;19921;-73
2022/11/25 07:25:40;;;;;;;;;;;;;;;;;;5007553;28;20389;-74
2022/11/25 07:28:06;;;;;;;;;;;;;;;;;;5002769;28;19972;-73
2022/11/25 07:30:32;;;;;;;;;;;;;;;;;;4995044;28;20393;-73
2022/11/25 07:32:58;;;;;;;;;;;;;;;;;;5000627;28;20279;-72
2022/11/25 07:35:24;;;;;;;;;;;;;;;;;;5010716;28;19929;-72
2022/11/25 07:37:50;;;;;;;;;;;;;;;;;;5012911;28;19922;-72
2022/11/25 07:40:15;;;;;;;;;;;;;;;;;;5005522;28;19925;-74
2022/11/25 07:42:41;;;;;;;;;;;;;;;;;;5013973;28;19921;-73
2022/11/25 07:45:08;;;;;;;;;;;;;;;;;;4992630;28;19928;-74
2022/11/25 07:47:34;;;;;;;;;;;;;;;;;;4994014;28;19921;-74
2022/11/25 07:50:00;;;;;;;;;;;;;;;;;;5005882;28;19965;-74
2022/11/25 07:52:26;;;;;;;;;;;;;;;;;;4993305;28;20350;-75
2022/11/25 07:54:52;;;;;;;;;;;;;;;;;;4977070;28;19945;-73
2022/11/25 07:57:18;;;;;;;;;;;;;;;;;;5011599;28;19921;-74
2022/11/25 07:59:44;;;;;;;;;;;;;;;;;;4994522;28;19921;-72
2022/11/25 08:02:09;;;;;;;;;;;;;;;;;;5011787;28;20008;-75
2022/11/25 08:04:35;;;;;;;;;;;;;;;;;;4992197;28;19943;-74
2022/11/25 08:07:01;;;;;;;;;;;;;;;;;;5011133;28;19922;-73
2022/11/25 08:09:27;;;;;;;;;;;;;;;;;;4995338;28;19925;-74
2022/11/25 08:11:53;;;;;;;;;;;;;;;;;;5011351;28;19926;-73
2022/11/25 08:14:19;;;;;;;;;;;;;;;;;;5009328;28;20061;-73
2022/11/25 08:16:45;;;;;;;;;;;;;;;;;;5011184;28;19922;-73
2022/11/25 08:19:12;;;;;;;;;;;;;;;;;;5013325;28;19926;-74
2022/11/25 08:21:38;;;;;;;;;;;;;;;;;;4994458;28;19921;-73
2022/11/25 08:24:04;;;;;;;;;;;;;;;;;;5010264;28;20407;-72
2022/11/25 08:26:30;;;;;;;;;;;;;;;;;;4992670;28;20071;-72
2022/11/25 08:28:56;;;;;;;;;;;;;;;;;;4994038;28;19921;-73
2022/11/25 08:31:22;;;;;;;;;;;;;;;;;;5001923;28;20367;-75
2022/11/25 08:33:48;;;;;;;;;;;;;;;;;;5012157;28;19921;-74
2022/11/25 08:36:14;;;;;;;;;;;;;;;;;;4999646;28;19921;-73
2022/11/25 08:38:40;;;;;;;;;;;;;;;;;;5020209;28;19921;-73
2022/11/25 08:41:06;;;;;;;;;;;;;;;;;;5010877;28;19967;-74
2022/11/25 08:43:32;;;;;;;;;;;;;;;;;;5012642;28;19981;-74
2022/11/25 08:45:58;;;;;;;;;;;;;;;;;;5011574;28;20383;-74
2022/11/25 08:48:24;;;;;;;;;;;;;;;;;;4992881;28;20413;-75
2022/11/25 08:50:50;;;;;;;;;;;;;;;;;;4999996;28;19921;-75
2022/11/25 08:53:16;;;;;;;;;;;;;;;;;;4995846;28;20007;-74
2022/11/25 08:55:42;;;;;;;;;;;;;;;;;;5011480;28;19947;-74
2022/11/25 08:58:10;;;;;;;;;;;;;;;;;;5008584;28;20410;-73
2022/11/25 09:00:36;;;;;;;;;;;;;;;;;;5007044;28;19929;-73
2022/11/25 09:03:02;;;;;;;;;;;;;;;;;;5015063;28;19928;-74
2022/11/25 09:05:34;;;;;;;;;;;;;;;;;;5008073;28;19921;-74
2022/11/25 09:08:00;;;;;;;;;;;;;;;;;;5016541;28;19944;-74
2022/11/25 09:10:26;;;;;;;;;;;;;;;;;;4993407;28;20275;-74
2022/11/25 09:12:52;;;;;;;;;;;;;;;;;;5016568;28;19925;-74
2022/11/25 09:15:25;;;;;;;;;;;;;;;;;;5002754;28;19922;-75
2022/11/25 09:17:51;;;;;;;;;;;;;;;;;;5017598;28;19917;-75
2022/11/25 09:20:17;;;;;;;;;;;;;;;;;;5017026;28;19922;-74
2022/11/25 09:22:43;;;;;;;;;;;;;;;;;;4994974;28;20012;-73
2022/11/25 09:25:09;;;;;;;;;;;;;;;;;;5031819;28;19921;-75
2022/11/25 09:27:35;;;;;;;;;;;;;;;;;;5002720;28;19968;-74
2022/11/25 09:30:01;;;;;;;;;;;;;;;;;;5006723;28;19925;-73
2022/11/25 09:32:27;;;;;;;;;;;;;;;;;;5007645;28;19945;-74
2022/11/25 09:34:53;;;;;;;;;;;;;;;;;;5020051;28;20630;-73
2022/11/25 09:37:19;;;;;;;;;;;;;;;;;;5018820;28;20328;-74
2022/11/25 09:39:45;;;;;;;;;;;;;;;;;;5017535;28;19921;-75
2022/11/25 09:47:41;;;;;;;;;;;;;;;;;;5014664;28;19926;-74
2022/11/25 09:50:06;;;;;;;;;;;;;;;;;;5010242;28;19928;-72
2022/11/25 09:52:32;;;;;;;;;;;;;;;;;;5016084;28;19932;-73
2022/11/25 09:55:01;;;;;;;;;;;;;;;;;;4996903;28;19921;-75
2022/11/25 09:57:27;;;;;;;;;;;;;;;;;;5009926;28;20097;-74
2022/11/25 09:59:53;;;;;;;;;;;;;;;;;;4994551;28;20438;-73
2022/11/25 10:02:19;;;;;;;;;;;;;;;;;;5015352;28;20417;-74
2022/11/25 10:04:45;;;;;;;;;;;;;;;;;;4998930;28;20019;-72
2022/11/25 10:07:11;;;;;;;;;;;;;;;;;;4999269;28;19968;-73
2022/11/25 10:09:37;;;;;;;;;;;;;;;;;;5013467;28;19932;-75
2022/11/25 10:12:03;;;;;;;;;;;;;;;;;;5008707;28;19928;-75
2022/11/25 10:14:29;;;;;;;;;;;;;;;;;;4993615;28;20019;-73
2022/11/25 10:16:55;;;;;;;;;;;;;;;;;;5009240;28;19968;-73
2022/11/25 10:19:21;;;;;;;;;;;;;;;;;;4998267;28;19921;-74
2022/11/25 10:21:47;;;;;;;;;;;;;;;;;;5010703;28;20330;-72
2022/11/25 10:24:13;;;;;;;;;;;;;;;;;;5000046;28;19973;-74
2022/11/25 10:26:39;;;;;;;;;;;;;;;;;;4990920;28;19921;-74
2022/11/25 10:29:05;;;;;;;;;;;;;;;;;;5016398;28;19932;-73
2022/11/25 10:31:31;;;;;;;;;;;;;;;;;;4997922;28;19921;-74
2022/11/25 10:33:57;;;;;;;;;;;;;;;;;;5004655;28;20289;-73
2022/11/25 10:36:23;;;;;;;;;;;;;;;;;;5012505;28;19928;-74
2022/11/25 10:38:49;;;;;;;;;;;;;;;;;;5010769;28;19929;-74
2022/11/25 10:41:15;;;;;;;;;;;;;;;;;;5016528;28;20016;-72
2022/11/25 10:43:41;;;;;;;;;;;;;;;;;;5013832;28;19921;-72
2022/11/25 10:46:07;;;;;;;;;;;;;;;;;;4997509;28;19925;-73
2022/11/25 10:48:33;;;;;;;;;;;;;;;;;;5020762;28;20297;-72
2022/11/25 10:50:59;;;;;;;;;;;;;;;;;;4997194;28;19922;-74
2022/11/25 10:53:25;;;;;;;;;;;;;;;;;;4995314;28;19921;-71
2022/11/25 10:55:51;;;;;;;;;;;;;;;;;;5011221;28;20020;-71
2022/11/25 10:58:17;;;;;;;;;;;;;;;;;;5010664;28;19920;-73
2022/11/25 11:00:43;;;;;;;;;;;;;;;;;;5012798;28;19921;-72
2022/11/25 11:03:08;;;;;;;;;;;;;;;;;;5032628;28;20016;-73
2022/11/25 11:05:34;;;;;;;;;;;;;;;;;;5012437;28;19961;-73
2022/11/25 11:08:00;;;;;;;;;;;;;;;;;;5018137;28;19960;-73
2022/11/25 11:10:26;;;;;;;;;;;;;;;;;;5007782;28;19969;-73
2022/11/25 11:12:52;;;;;;;;;;;;;;;;;;4999011;28;19933;-72
2022/11/25 11:15:18;;;;;;;;;;;;;;;;;;5012200;28;19929;-72
2022/11/25 11:17:44;;;;;;;;;;;;;;;;;;5005026;28;19955;-73
2022/11/25 11:20:13;;;;;;;;;;;;;;;;;;5014995;28;19929;-72
2022/11/25 11:22:39;;;;;;;;;;;;;;;;;;5009931;28;19933;-73
2022/11/25 11:25:05;;;;;;;;;;;;;;;;;;4993192;28;20346;-72
2022/11/25 11:27:31;;;;;;;;;;;;;;;;;;5020475;28;19990;-71
2022/11/25 11:29:57;;;;;;;;;;;;;;;;;;5019086;28;20325;-73
2022/11/25 11:32:23;;;;;;;;;;;;;;;;;;5008243;28;19922;-71
2022/11/25 11:34:49;;;;;;;;;;;;;;;;;;5012594;28;19921;-71
2022/11/25 11:37:15;;;;;;;;;;;;;;;;;;4990607;28;19921;-71
2022/11/25 11:39:41;;;;;;;;;;;;;;;;;;4993571;28;19921;-72
2022/11/25 11:42:07;;;;;;;;;;;;;;;;;;5013253;28;19948;-72
2022/11/25 11:44:33;;;;;;;;;;;;;;;;;;5011071;28;19927;-72
2022/11/25 11:46:59;;;;;;;;;;;;;;;;;;5008024;28;20008;-70
2022/11/25 11:49:25;;;;;;;;;;;;;;;;;;5000325;28;20349;-72
2022/11/25 11:51:51;;;;;;;;;;;;;;;;;;5012625;28;20000;-73
2022/11/25 11:54:17;;;;;;;;;;;;;;;;;;5008680;28;20362;-73
2022/11/25 11:56:43;;;;;;;;;;;;;;;;;;5013085;28;20278;-72
2022/11/25 11:59:09;;;;;;;;;;;;;;;;;;4991873;28;20306;-73
2022/11/25 12:01:35;;;;;;;;;;;;;;;;;;5003477;28;19925;-73
2022/11/25 12:04:01;;;;;;;;;;;;;;;;;;4997686;28;19921;-72
2022/11/25 12:06:27;;;;;;;;;;;;;;;;;;5010135;28;19924;-71
2022/11/25 12:08:55;;;;;;;;;;;;;;;;;;5003003;28;20012;-72
2022/11/25 12:11:21;;;;;;;;;;;;;;;;;;5021618;28;19945;-72
2022/11/25 12:13:47;;;;;;;;;;;;;;;;;;5003663;28;20366;-71
2022/11/25 12:16:13;;;;;;;;;;;;;;;;;;4988566;28;19983;-72
2022/11/25 12:18:39;;;;;;;;;;;;;;;;;;5005356;28;20384;-72
2022/11/25 12:21:05;;;;;;;;;;;;;;;;;;5010775;28;20398;-72
2022/11/25 12:23:31;;;;;;;;;;;;;;;;;;5012315;28;19972;-72
2022/11/25 12:25:57;;;;;;;;;;;;;;;;;;4990533;28;20290;-71
2022/11/25 12:28:22;;;;;;;;;;;;;;;;;;5005967;28;19928;-72
2022/11/25 12:30:48;;;;;;;;;;;;;;;;;;4993657;28;19922;-72
2022/11/25 12:33:14;;;;;;;;;;;;;;;;;;5005715;28;20302;-70
2022/11/25 12:35:40;;;;;;;;;;;;;;;;;;5008012;28;19953;-72
2022/11/25 12:38:06;;;;;;;;;;;;;;;;;;5010484;28;20253;-74
2022/11/25 12:40:32;;;;;;;;;;;;;;;;;;5009416;28;20386;-72
2022/11/25 12:42:58;;;;;;;;;;;;;;;;;;4991934;28;19929;-72
2022/11/25 12:45:24;;;;;;;;;;;;;;;;;;5010112;28;19926;-72
2022/11/25 12:47:50;;;;;;;;;;;;;;;;;;5013176;28;20042;-71
2022/11/25 12:50:16;;;;;;;;;;;;;;;;;;5009747;28;20068;-72
2022/11/25 12:52:42;;;;;;;;;;;;;;;;;;5011924;28;20012;-71
2022/11/25 12:55:08;;;;;;;;;;;;;;;;;;5005186;28;20005;-71
2022/11/25 12:57:34;;;;;;;;;;;;;;;;;;4998013;28;19932;-72
2022/11/25 13:00:00;;;;;;;;;;;;;;;;;;5014425;28;20337;-72
2022/11/25 13:02:26;;;;;;;;;;;;;;;;;;5012547;28;20441;-72
2022/11/25 13:04:52;;;;;;;;;;;;;;;;;;5013154;28;20000;-72
2022/11/25 13:07:18;;;;;;;;;;;;;;;;;;5022087;28;19981;-71
2022/11/25 13:09:44;;;;;;;;;;;;;;;;;;5020777;28;19960;-72
2022/11/25 13:12:10;;;;;;;;;;;;;;;;;;5004444;28;19921;-72
2022/11/25 13:14:36;;;;;;;;;;;;;;;;;;5009309;28;19995;-71
2022/11/25 13:17:02;;;;;;;;;;;;;;;;;;5013032;28;20009;-72
2022/11/25 13:19:28;;;;;;;;;;;;;;;;;;5010932;28;19983;-71
2022/11/25 13:21:54;;;;;;;;;;;;;;;;;;5009157;28;19921;-71
2022/11/25 13:24:20;;;;;;;;;;;;;;;;;;5014422;28;19929;-71
2022/11/25 13:26:46;;;;;;;;;;;;;;;;;;5013237;28;19922;-71
2022/11/25 13:29:11;;;;;;;;;;;;;;;;;;5014977;28;20008;-71
2022/11/25 13:31:37;;;;;;;;;;;;;;;;;;4995827;28;19925;-72
2022/11/25 13:34:03;;;;;;;;;;;;;;;;;;5014365;28;19944;-71
2022/11/25 13:36:29;;;;;;;;;;;;;;;;;;4991808;28;19925;-72
2022/11/25 13:38:59;;;;;;;;;;;;;;;;;;4994829;28;19975;-71
2022/11/25 13:41:25;;;;;;;;;;;;;;;;;;5014894;28;19925;-71
2022/11/25 13:43:50;;;;;;;;;;;;;;;;;;4995526;28;19929;-72
2022/11/25 13:46:16;;;;;;;;;;;;;;;;;;5012056;28;20365;-71
2022/11/25 13:48:42;;;;;;;;;;;;;;;;;;5015845;28;19969;-71
2022/11/25 13:51:08;;;;;;;;;;;;;;;;;;5013036;28;19946;-71
2022/11/25 13:53:34;;;;;;;;;;;;;;;;;;4993091;28;19925;-72
2022/11/25 13:56:00;;;;;;;;;;;;;;;;;;4995006;28;19925;-72
2022/11/25 13:58:30;;;;;;;;;;;;;;;;;;5013663;28;20017;-70
2022/11/25 14:00:56;;;;;;;;;;;;;;;;;;4994708;28;19921;-70
2022/11/25 14:03:22;;;;;;;;;;;;;;;;;;4997407;28;20275;-70
2022/11/25 14:05:48;;;;;;;;;;;;;;;;;;4998159;28;20412;-71
2022/11/25 14:08:13;;;;;;;;;;;;;;;;;;4993491;28;19997;-70
2022/11/25 14:10:43;;;;;;;;;;;;;;;;;;5013620;28;20390;-72
2022/11/25 14:13:09;;;;;;;;;;;;;;;;;;5014355;28;20012;-72
2022/11/25 14:15:35;;;;;;;;;;;;;;;;;;4996948;28;19953;-71
2022/11/25 14:18:01;;;;;;;;;;;;;;;;;;5015592;28;19928;-71
2022/11/25 14:20:27;;;;;;;;;;;;;;;;;;5000072;28;20004;-72
2022/11/25 14:22:53;;;;;;;;;;;;;;;;;;4994999;28;19921;-70
2022/11/25 14:25:19;;;;;;;;;;;;;;;;;;4997477;28;19921;-70
2022/11/25 14:27:46;;;;;;;;;;;;;;;;;;5014240;28;19944;-70
2022/11/25 14:30:12;;;;;;;;;;;;;;;;;;5014376;28;19921;-72
2022/11/25 14:32:38;;;;;;;;;;;;;;;;;;4996065;28;19929;-70
2022/11/25 14:35:04;;;;;;;;;;;;;;;;;;5005123;28;19928;-71
2022/11/25 14:37:29;;;;;;;;;;;;;;;;;;4998043;28;20382;-71
2022/11/25 14:39:55;;;;;;;;;;;;;;;;;;5014494;28;20526;-71
2022/11/25 14:42:24;;;;;;;;;;;;;;;;;;5006804;28;20114;-71
2022/11/25 14:44:50;;;;;;;;;;;;;;;;;;4995601;28;19991;-71
2022/11/25 14:47:16;;;;;;;;;;;;;;;;;;5013372;28;20357;-70
2022/11/25 14:49:42;;;;;;;;;;;;;;;;;;5012364;28;19921;-71
2022/11/25 14:52:09;;;;;;;;;;;;;;;;;;5011107;28;19928;-71
2022/11/25 14:54:35;;;;;;;;;;;;;;;;;;5013494;28;20362;-71
2022/11/25 14:57:01;;;;;;;;;;;;;;;;;;4992127;28;19949;-70
2022/11/25 14:59:27;;;;;;;;;;;;;;;;;;4995409;28;20029;-71
2022/11/25 15:01:53;;;;;;;;;;;;;;;;;;5007958;28;20378;-71
2022/11/25 15:04:20;;;;;;;;;;;;;;;;;;5013563;28;19922;-70
2022/11/25 15:06:46;;;;;;;;;;;;;;;;;;5002057;28;19921;-71
2022/11/25 15:09:12;;;;;;;;;;;;;;;;;;5010457;28;20432;-72
2022/11/25 15:11:38;;;;;;;;;;;;;;;;;;4989310;28;19922;-71
2022/11/25 15:14:04;;;;;;;;;;;;;;;;;;5009875;28;19932;-71
2022/11/25 15:16:30;;;;;;;;;;;;;;;;;;5009068;28;19921;-72
2022/11/25 15:18:56;;;;;;;;;;;;;;;;;;4994808;28;19922;-70
2022/11/25 15:21:22;;;;;;;;;;;;;;;;;;4991056;28;19925;-71
2022/11/25 15:23:48;;;;;;;;;;;;;;;;;;5011512;28;19925;-71
2022/11/25 15:26:14;;;;;;;;;;;;;;;;;;5014177;28;19928;-70
2022/11/25 15:28:40;;;;;;;;;;;;;;;;;;5007130;28;19927;-71
2022/11/25 15:31:06;;;;;;;;;;;;;;;;;;5009846;28;19922;-70
2022/11/25 15:33:32;;;;;;;;;;;;;;;;;;5013034;28;19921;-71
2022/11/25 15:35:58;;;;;;;;;;;;;;;;;;5009326;28;19921;-71
2022/11/25 15:38:24;;;;;;;;;;;;;;;;;;5008352;28;19975;-70
2022/11/25 15:40:50;;;;;;;;;;;;;;;;;;5012181;28;19928;-71
2022/11/25 15:43:16;;;;;;;;;;;;;;;;;;5011356;28;19968;-70
2022/11/25 15:45:42;;;;;;;;;;;;;;;;;;5006404;28;19921;-71
2022/11/25 15:48:08;;;;;;;;;;;;;;;;;;4999876;28;19926;-71
2022/11/25 15:50:34;;;;;;;;;;;;;;;;;;5008549;28;20271;-70
2022/11/25 15:53:00;;;;;;;;;;;;;;;;;;4986318;28;20294;-71
2022/11/25 15:55:26;;;;;;;;;;;;;;;;;;5013035;28;19921;-70
2022/11/25 15:57:52;;;;;;;;;;;;;;;;;;5006406;28;19929;-70
2022/11/25 16:00:18;;;;;;;;;;;;;;;;;;5014428;28;19928;-70
2022/11/25 16:02:44;;;;;;;;;;;;;;;;;;5009132;28;20278;-69
2022/11/25 16:05:10;;;;;;;;;;;;;;;;;;5010335;28;19921;-72
2022/11/25 16:07:36;;;;;;;;;;;;;;;;;;5008235;28;20052;-71
2022/11/25 16:10:02;;;;;;;;;;;;;;;;;;4992894;28;20720;-70
2022/11/25 16:12:28;;;;;;;;;;;;;;;;;;5012452;28;19971;-70
2022/11/25 16:14:56;;;;;;;;;;;;;;;;;;5010493;28;20373;-71
2022/11/25 16:17:22;;;;;;;;;;;;;;;;;;5008148;28;20254;-71
2022/11/25 16:19:48;;;;;;;;;;;;;;;;;;5006100;28;20414;-71
2022/11/25 16:22:14;;;;;;;;;;;;;;;;;;5009318;28;20475;-70
2022/11/25 16:24:40;;;;;;;;;;;;;;;;;;5014328;28;19929;-71
2022/11/25 16:27:06;;;;;;;;;;;;;;;;;;5005714;28;20012;-71
2022/11/25 16:29:32;;;;;;;;;;;;;;;;;;5010988;28;19927;-71
2022/11/25 16:31:58;;;;;;;;;;;;;;;;;;5014173;28;19961;-71
2022/11/25 16:34:25;;;;;;;;;;;;;;;;;;4995961;28;19943;-71
2022/11/25 16:36:51;;;;;;;;;;;;;;;;;;5008679;28;19921;-71
2022/11/25 16:39:17;;;;;;;;;;;;;;;;;;4996148;28;20362;-70
2022/11/25 16:41:45;;;;;;;;;;;;;;;;;;5011633;28;20000;-70
2022/11/25 16:44:14;;;;;;;;;;;;;;;;;;4994769;28;20301;-72
2022/11/25 16:46:42;;;;;;;;;;;;;;;;;;5009026;28;20008;-70
2022/11/25 16:49:08;;;;;;;;;;;;;;;;;;5012260;28;19925;-70
2022/11/25 16:51:34;;;;;;;;;;;;;;;;;;5014206;28;19976;-72